sensor_id;sensor_type;location;lat;lon;timestamp;temperature;humidity
16128;DHT22;8168;49.036;7.690;2023-04-07T00:00:56;8.00;99.90
16128;DHT22;8168;49.036;7.690;2023-04-07T00:03:26;7.80;99.90
16128;DHT22;8168;49.036;7.690;2023-04-07T00:05:57;10.90;99.90
16128;DHT22;8168;49.036;7.690;2023-04-07T00:08:27;7.80;99.90
16128;DHT22;8168;49.036;7.690;2023-04-07T00:10:58;7.80;99.90
16128;DHT22;8168;49.036;7.690;2023-04-07T00:13:28;7.90;99.90
16128;DHT22;8168;49.036;7.690;2023-04-07T00:15:59;8.00;99.90
16128;DHT22;8168;49.036;7.690;2023-04-07T00:18:30;7.70;99.90
16128;DHT22;8168;49.036;7.690;2023-04-07T00:21:01;7.90;99.90
16128;DHT22;8168;49.036;7.690;2023-04-07T00:23:32;7.70;99.90
16128;DHT22;8168;49.036;7.690;2023-04-07T00:26:02;7.70;99.90
16128;DHT22;8168;49.036;7.690;2023-04-07T00:28:33;7.80;99.90
16128;DHT22;8168;49.036;7.690;2023-04-07T00:31:03;7.70;99.90
16128;DHT22;8168;49.036;7.690;2023-04-07T00:33:34;7.70;99.90
16128;DHT22;8168;49.036;7.690;2023-04-07T00:36:05;7.90;99.90
16128;DHT22;8168;49.036;7.690;2023-04-07T00:38:35;7.70;99.90
16128;DHT22;8168;49.036;7.690;2023-04-07T00:41:06;7.80;99.90
16128;DHT22;8168;49.036;7.690;2023-04-07T00:43:36;7.80;99.90
16128;DHT22;8168;49.036;7.690;2023-04-07T00:46:07;7.60;99.90
16128;DHT22;8168;49.036;7.690;2023-04-07T00:48:38;7.80;99.90
16128;DHT22;8168;49.036;7.690;2023-04-07T00:51:08;7.60;99.90
16128;DHT22;8168;49.036;7.690;2023-04-07T00:53:39;8.00;99.90
16128;DHT22;8168;49.036;7.690;2023-04-07T00:56:10;7.50;99.90
16128;DHT22;8168;49.036;7.690;2023-04-07T00:58:40;7.40;99.90
16128;DHT22;8168;49.036;7.690;2023-04-07T01:01:18;7.70;99.90
16128;DHT22;8168;49.036;7.690;2023-04-07T01:04:11;7.80;99.90
16128;DHT22;8168;49.036;7.690;2023-04-07T01:06:47;7.30;99.90
16128;DHT22;8168;49.036;7.690;2023-04-07T01:09:24;7.40;99.90
16128;DHT22;8168;49.036;7.690;2023-04-07T01:12:20;7.70;99.90
16128;DHT22;8168;49.036;7.690;2023-04-07T01:14:58;7.30;99.90
16128;DHT22;8168;49.036;7.690;2023-04-07T01:17:30;7.20;99.90
16128;DHT22;8168;49.036;7.690;2023-04-07T01:20:04;7.50;99.90
16128;DHT22;8168;49.036;7.690;2023-04-07T01:22:44;7.30;99.90
16128;DHT22;8168;49.036;7.690;2023-04-07T01:30:57;7.60;99.90
16128;DHT22;8168;49.036;7.690;2023-04-07T01:33:31;7.30;99.90
16128;DHT22;8168;49.036;7.690;2023-04-07T01:36:05;7.20;99.90
16128;DHT22;8168;49.036;7.690;2023-04-07T01:38:37;7.30;99.90
16128;DHT22;8168;49.036;7.690;2023-04-07T01:41:09;7.30;99.90
16128;DHT22;8168;49.036;7.690;2023-04-07T01:43:40;7.30;99.90
16128;DHT22;8168;49.036;7.690;2023-04-07T01:46:13;7.20;99.90
16128;DHT22;8168;49.036;7.690;2023-04-07T01:48:44;7.20;99.90
16128;DHT22;8168;49.036;7.690;2023-04-07T01:51:15;7.20;99.90
16128;DHT22;8168;49.036;7.690;2023-04-07T01:53:47;7.40;99.90
16128;DHT22;8168;49.036;7.690;2023-04-07T01:56:18;7.10;99.90
16128;DHT22;8168;49.036;7.690;2023-04-07T01:58:48;7.10;99.90
16128;DHT22;8168;49.036;7.690;2023-04-07T02:01:19;7.10;99.90
16128;DHT22;8168;49.036;7.690;2023-04-07T02:03:56;7.10;99.90
16128;DHT22;8168;49.036;7.690;2023-04-07T02:06:36;7.10;99.90
16128;DHT22;8168;49.036;7.690;2023-04-07T02:09:10;7.60;99.90
16128;DHT22;8168;49.036;7.690;2023-04-07T02:11:44;7.10;99.90
16128;DHT22;8168;49.036;7.690;2023-04-07T02:14:15;7.20;99.90
16128;DHT22;8168;49.036;7.690;2023-04-07T02:16:48;7.20;99.90
16128;DHT22;8168;49.036;7.690;2023-04-07T02:19:19;7.20;99.90
16128;DHT22;8168;49.036;7.690;2023-04-07T02:21:50;7.10;99.90
16128;DHT22;8168;49.036;7.690;2023-04-07T02:24:21;7.10;99.90
16128;DHT22;8168;49.036;7.690;2023-04-07T02:26:55;7.00;99.90
16128;DHT22;8168;49.036;7.690;2023-04-07T02:29:26;8.90;99.90
16128;DHT22;8168;49.036;7.690;2023-04-07T02:31:57;7.10;99.90
16128;DHT22;8168;49.036;7.690;2023-04-07T02:34:28;7.00;99.90
16128;DHT22;8168;49.036;7.690;2023-04-07T02:36:58;7.00;99.90
16128;DHT22;8168;49.036;7.690;2023-04-07T02:39:29;7.00;99.90
16128;DHT22;8168;49.036;7.690;2023-04-07T02:41:59;7.00;99.90
16128;DHT22;8168;49.036;7.690;2023-04-07T02:44:30;7.00;99.90
16128;DHT22;8168;49.036;7.690;2023-04-07T02:47:01;7.00;99.90
16128;DHT22;8168;49.036;7.690;2023-04-07T02:49:31;6.90;99.90
16128;DHT22;8168;49.036;7.690;2023-04-07T02:52:02;7.30;99.90
16128;DHT22;8168;49.036;7.690;2023-04-07T02:54:33;6.90;99.90
16128;DHT22;8168;49.036;7.690;2023-04-07T02:57:03;6.80;99.90
16128;DHT22;8168;49.036;7.690;2023-04-07T02:59:34;6.80;99.90
16128;DHT22;8168;49.036;7.690;2023-04-07T03:02:05;6.80;99.90
16128;DHT22;8168;49.036;7.690;2023-04-07T03:04:36;6.80;99.90
16128;DHT22;8168;49.036;7.690;2023-04-07T03:07:06;6.80;99.90
16128;DHT22;8168;49.036;7.690;2023-04-07T03:09:37;6.80;99.90
16128;DHT22;8168;49.036;7.690;2023-04-07T03:12:07;6.70;99.90
16128;DHT22;8168;49.036;7.690;2023-04-07T03:14:38;6.80;99.90
16128;DHT22;8168;49.036;7.690;2023-04-07T03:17:09;6.70;99.90
16128;DHT22;8168;49.036;7.690;2023-04-07T03:19:39;6.60;99.90
16128;DHT22;8168;49.036;7.690;2023-04-07T03:22:10;6.90;99.90
16128;DHT22;8168;49.036;7.690;2023-04-07T03:24:41;6.60;99.90
16128;DHT22;8168;49.036;7.690;2023-04-07T03:27:11;6.60;99.90
16128;DHT22;8168;49.036;7.690;2023-04-07T03:29:42;6.50;99.90
16128;DHT22;8168;49.036;7.690;2023-04-07T03:32:12;6.70;99.90
16128;DHT22;8168;49.036;7.690;2023-04-07T03:34:43;6.40;99.90
16128;DHT22;8168;49.036;7.690;2023-04-07T03:37:14;6.40;99.90
16128;DHT22;8168;49.036;7.690;2023-04-07T03:39:44;6.40;99.90
16128;DHT22;8168;49.036;7.690;2023-04-07T03:42:15;6.40;99.90
16128;DHT22;8168;49.036;7.690;2023-04-07T03:44:46;6.30;99.90
16128;DHT22;8168;49.036;7.690;2023-04-07T03:47:16;6.30;99.90
16128;DHT22;8168;49.036;7.690;2023-04-07T03:49:47;6.30;99.90
16128;DHT22;8168;49.036;7.690;2023-04-07T03:52:18;6.30;99.90
16128;DHT22;8168;49.036;7.690;2023-04-07T03:54:48;6.20;99.90
16128;DHT22;8168;49.036;7.690;2023-04-07T03:57:19;6.20;99.90
16128;DHT22;8168;49.036;7.690;2023-04-07T03:59:50;6.10;99.90
16128;DHT22;8168;49.036;7.690;2023-04-07T04:02:20;6.10;99.90
16128;DHT22;8168;49.036;7.690;2023-04-07T04:04:51;6.00;99.90
16128;DHT22;8168;49.036;7.690;2023-04-07T04:07:21;6.00;99.90
16128;DHT22;8168;49.036;7.690;2023-04-07T04:09:52;7.80;99.90
16128;DHT22;8168;49.036;7.690;2023-04-07T04:12:23;5.90;99.90
16128;DHT22;8168;49.036;7.690;2023-04-07T04:14:53;5.90;99.90
16128;DHT22;8168;49.036;7.690;2023-04-07T04:17:24;5.90;99.90
16128;DHT22;8168;49.036;7.690;2023-04-07T04:19:55;5.90;99.90
16128;DHT22;8168;49.036;7.690;2023-04-07T04:22:26;5.70;99.90
16128;DHT22;8168;49.036;7.690;2023-04-07T04:24:56;5.70;99.90
16128;DHT22;8168;49.036;7.690;2023-04-07T04:27:27;5.70;99.90
16128;DHT22;8168;49.036;7.690;2023-04-07T04:29:58;5.70;99.90
16128;DHT22;8168;49.036;7.690;2023-04-07T04:32:28;5.70;99.90
16128;DHT22;8168;49.036;7.690;2023-04-07T04:34:59;5.70;99.90
16128;DHT22;8168;49.036;7.690;2023-04-07T04:37:29;5.60;99.90
16128;DHT22;8168;49.036;7.690;2023-04-07T04:40:01;5.60;99.90
16128;DHT22;8168;49.036;7.690;2023-04-07T04:42:32;5.60;99.90
16128;DHT22;8168;49.036;7.690;2023-04-07T04:45:03;5.60;99.90
16128;DHT22;8168;49.036;7.690;2023-04-07T04:47:34;5.50;99.90
16128;DHT22;8168;49.036;7.690;2023-04-07T04:50:06;5.50;99.90
16128;DHT22;8168;49.036;7.690;2023-04-07T04:52:36;5.50;99.90
16128;DHT22;8168;49.036;7.690;2023-04-07T04:55:08;5.50;99.90
16128;DHT22;8168;49.036;7.690;2023-04-07T04:57:39;5.50;99.90
16128;DHT22;8168;49.036;7.690;2023-04-07T05:00:10;5.50;99.90
16128;DHT22;8168;49.036;7.690;2023-04-07T05:02:41;5.50;99.90
16128;DHT22;8168;49.036;7.690;2023-04-07T05:05:12;5.50;99.90
16128;DHT22;8168;49.036;7.690;2023-04-07T05:07:42;5.40;99.90
16128;DHT22;8168;49.036;7.690;2023-04-07T05:10:13;5.40;99.90
16128;DHT22;8168;49.036;7.690;2023-04-07T05:12:44;5.40;99.90
16128;DHT22;8168;49.036;7.690;2023-04-07T05:15:14;5.40;99.90
16128;DHT22;8168;49.036;7.690;2023-04-07T05:17:45;5.30;99.90
16128;DHT22;8168;49.036;7.690;2023-04-07T05:20:19;5.30;99.90
16128;DHT22;8168;49.036;7.690;2023-04-07T05:22:50;5.20;99.90
16128;DHT22;8168;49.036;7.690;2023-04-07T05:25:20;5.20;99.90
16128;DHT22;8168;49.036;7.690;2023-04-07T05:27:51;2.10;99.90
16128;DHT22;8168;49.036;7.690;2023-04-07T05:30:21;5.20;99.90
16128;DHT22;8168;49.036;7.690;2023-04-07T05:32:52;5.10;99.90
16128;DHT22;8168;49.036;7.690;2023-04-07T05:35:23;5.00;99.90
16128;DHT22;8168;49.036;7.690;2023-04-07T05:37:54;5.00;99.90
16128;DHT22;8168;49.036;7.690;2023-04-07T05:40:24;5.00;99.90
16128;DHT22;8168;49.036;7.690;2023-04-07T05:42:55;5.00;99.90
16128;DHT22;8168;49.036;7.690;2023-04-07T05:45:26;5.00;99.90
16128;DHT22;8168;49.036;7.690;2023-04-07T05:47:56;5.00;99.90
16128;DHT22;8168;49.036;7.690;2023-04-07T05:50:27;5.00;99.90
16128;DHT22;8168;49.036;7.690;2023-04-07T05:52:57;4.90;99.90
16128;DHT22;8168;49.036;7.690;2023-04-07T05:55:28;5.10;99.90
16128;DHT22;8168;49.036;7.690;2023-04-07T05:57:59;4.90;99.90
16128;DHT22;8168;49.036;7.690;2023-04-07T06:00:29;5.00;99.90
16128;DHT22;8168;49.036;7.690;2023-04-07T06:03:00;5.00;99.90
16128;DHT22;8168;49.036;7.690;2023-04-07T06:05:31;5.10;99.90
16128;DHT22;8168;49.036;7.690;2023-04-07T06:08:02;5.20;99.90
16128;DHT22;8168;49.036;7.690;2023-04-07T06:10:32;5.20;99.90
16128;DHT22;8168;49.036;7.690;2023-04-07T06:13:03;5.20;99.90
16128;DHT22;8168;49.036;7.690;2023-04-07T06:15:34;5.30;99.90
16128;DHT22;8168;49.036;7.690;2023-04-07T06:18:04;5.40;99.90
16128;DHT22;8168;49.036;7.690;2023-04-07T06:20:35;5.40;99.90
16128;DHT22;8168;49.036;7.690;2023-04-07T06:23:06;5.40;99.90
16128;DHT22;8168;49.036;7.690;2023-04-07T06:25:37;5.50;99.90
16128;DHT22;8168;49.036;7.690;2023-04-07T06:28:07;5.50;99.90
16128;DHT22;8168;49.036;7.690;2023-04-07T06:30:38;5.60;99.90
16128;DHT22;8168;49.036;7.690;2023-04-07T06:33:10;5.70;99.90
16128;DHT22;8168;49.036;7.690;2023-04-07T06:35:40;5.80;99.90
16128;DHT22;8168;49.036;7.690;2023-04-07T06:38:11;5.80;99.90
16128;DHT22;8168;49.036;7.690;2023-04-07T06:40:42;6.00;99.90
16128;DHT22;8168;49.036;7.690;2023-04-07T06:43:13;6.00;99.90
16128;DHT22;8168;49.036;7.690;2023-04-07T06:45:43;6.10;99.90
16128;DHT22;8168;49.036;7.690;2023-04-07T06:48:14;6.20;99.90
16128;DHT22;8168;49.036;7.690;2023-04-07T06:50:50;6.20;99.90
16128;DHT22;8168;49.036;7.690;2023-04-07T06:53:21;6.30;99.90
16128;DHT22;8168;49.036;7.690;2023-04-07T06:56:04;6.30;99.90
16128;DHT22;8168;49.036;7.690;2023-04-07T06:58:36;6.40;99.90
16128;DHT22;8168;49.036;7.690;2023-04-07T07:01:07;6.50;99.90
16128;DHT22;8168;49.036;7.690;2023-04-07T07:03:37;6.60;99.90
16128;DHT22;8168;49.036;7.690;2023-04-07T07:06:08;6.60;99.90
16128;DHT22;8168;49.036;7.690;2023-04-07T07:08:39;6.70;99.90
16128;DHT22;8168;49.036;7.690;2023-04-07T07:11:09;6.70;99.90
16128;DHT22;8168;49.036;7.690;2023-04-07T07:13:40;6.80;99.90
16128;DHT22;8168;49.036;7.690;2023-04-07T07:16:11;6.80;99.90
16128;DHT22;8168;49.036;7.690;2023-04-07T07:18:44;6.90;99.90
16128;DHT22;8168;49.036;7.690;2023-04-07T07:21:19;6.90;99.90
16128;DHT22;8168;49.036;7.690;2023-04-07T07:23:49;6.90;99.90
16128;DHT22;8168;49.036;7.690;2023-04-07T07:26:20;4.00;99.90
16128;DHT22;8168;49.036;7.690;2023-04-07T07:28:51;7.00;99.90
16128;DHT22;8168;49.036;7.690;2023-04-07T07:31:21;7.10;99.90
16128;DHT22;8168;49.036;7.690;2023-04-07T07:33:53;7.20;99.90
16128;DHT22;8168;49.036;7.690;2023-04-07T07:36:23;7.20;99.90
16128;DHT22;8168;49.036;7.690;2023-04-07T07:38:56;7.30;99.90
16128;DHT22;8168;49.036;7.690;2023-04-07T07:41:26;7.70;99.90
16128;DHT22;8168;49.036;7.690;2023-04-07T07:43:57;7.40;99.90
16128;DHT22;8168;49.036;7.690;2023-04-07T07:46:27;7.50;99.90
16128;DHT22;8168;49.036;7.690;2023-04-07T07:48:59;7.80;99.90
16128;DHT22;8168;49.036;7.690;2023-04-07T07:51:30;7.80;99.90
16128;DHT22;8168;49.036;7.690;2023-04-07T07:54:00;7.70;99.90
16128;DHT22;8168;49.036;7.690;2023-04-07T07:56:31;7.70;99.90
16128;DHT22;8168;49.036;7.690;2023-04-07T07:59:03;7.80;99.90
16128;DHT22;8168;49.036;7.690;2023-04-07T08:01:35;7.90;99.90
16128;DHT22;8168;49.036;7.690;2023-04-07T08:04:06;8.00;99.90
16128;DHT22;8168;49.036;7.690;2023-04-07T08:06:36;8.10;99.90
16128;DHT22;8168;49.036;7.690;2023-04-07T08:09:07;8.20;99.90
16128;DHT22;8168;49.036;7.690;2023-04-07T08:11:38;8.30;99.90
16128;DHT22;8168;49.036;7.690;2023-04-07T08:14:08;8.40;99.90
16128;DHT22;8168;49.036;7.690;2023-04-07T08:16:39;8.50;99.90
16128;DHT22;8168;49.036;7.690;2023-04-07T08:19:11;8.60;99.90
16128;DHT22;8168;49.036;7.690;2023-04-07T08:21:42;8.80;99.90
16128;DHT22;8168;49.036;7.690;2023-04-07T08:24:13;8.70;99.90
16128;DHT22;8168;49.036;7.690;2023-04-07T08:26:44;9.00;99.90
16128;DHT22;8168;49.036;7.690;2023-04-07T08:29:15;9.10;99.90
16128;DHT22;8168;49.036;7.690;2023-04-07T08:31:45;9.20;99.90
16128;DHT22;8168;49.036;7.690;2023-04-07T08:34:16;9.30;99.90
16128;DHT22;8168;49.036;7.690;2023-04-07T08:36:48;9.30;99.90
16128;DHT22;8168;49.036;7.690;2023-04-07T08:39:18;9.40;99.90
16128;DHT22;8168;49.036;7.690;2023-04-07T08:41:49;9.40;99.90
16128;DHT22;8168;49.036;7.690;2023-04-07T08:44:21;9.50;99.90
16128;DHT22;8168;49.036;7.690;2023-04-07T08:46:56;9.60;99.90
16128;DHT22;8168;49.036;7.690;2023-04-07T08:49:27;9.70;99.90
16128;DHT22;8168;49.036;7.690;2023-04-07T08:52:02;9.70;99.90
16128;DHT22;8168;49.036;7.690;2023-04-07T08:54:35;9.80;99.90
16128;DHT22;8168;49.036;7.690;2023-04-07T08:57:07;9.80;99.90
16128;DHT22;8168;49.036;7.690;2023-04-07T08:59:38;9.80;99.90
16128;DHT22;8168;49.036;7.690;2023-04-07T09:02:13;9.80;99.90
16128;DHT22;8168;49.036;7.690;2023-04-07T09:04:44;9.90;99.90
16128;DHT22;8168;49.036;7.690;2023-04-07T09:07:15;9.90;99.90
16128;DHT22;8168;49.036;7.690;2023-04-07T09:09:46;10.00;99.90
16128;DHT22;8168;49.036;7.690;2023-04-07T09:12:17;10.00;99.90
16128;DHT22;8168;49.036;7.690;2023-04-07T09:14:47;10.10;99.90
16128;DHT22;8168;49.036;7.690;2023-04-07T09:17:18;10.10;99.90
16128;DHT22;8168;49.036;7.690;2023-04-07T09:19:50;10.10;99.90
16128;DHT22;8168;49.036;7.690;2023-04-07T09:22:39;10.20;99.90
16128;DHT22;8168;49.036;7.690;2023-04-07T09:25:16;10.20;99.90
16128;DHT22;8168;49.036;7.690;2023-04-07T09:28:00;10.20;99.90
16128;DHT22;8168;49.036;7.690;2023-04-07T09:30:32;10.50;99.90
16128;DHT22;8168;49.036;7.690;2023-04-07T09:33:04;10.30;99.90
16128;DHT22;8168;49.036;7.690;2023-04-07T09:35:50;10.30;99.90
16128;DHT22;8168;49.036;7.690;2023-04-07T09:38:32;10.30;99.90
16128;DHT22;8168;49.036;7.690;2023-04-07T09:43:43;10.30;99.90
16128;DHT22;8168;49.036;7.690;2023-04-07T09:46:16;10.40;99.90
16128;DHT22;8168;49.036;7.690;2023-04-07T09:49:01;10.50;99.90
16128;DHT22;8168;49.036;7.690;2023-04-07T09:51:34;10.60;99.90
16128;DHT22;8168;49.036;7.690;2023-04-07T09:54:05;10.70;99.90
16128;DHT22;8168;49.036;7.690;2023-04-07T09:56:36;10.80;99.90
16128;DHT22;8168;49.036;7.690;2023-04-07T09:59:07;10.90;99.90
16128;DHT22;8168;49.036;7.690;2023-04-07T10:01:39;10.90;99.90
16128;DHT22;8168;49.036;7.690;2023-04-07T10:04:10;10.90;99.90
16128;DHT22;8168;49.036;7.690;2023-04-07T10:06:41;10.90;99.90
16128;DHT22;8168;49.036;7.690;2023-04-07T10:09:13;10.90;99.90
16128;DHT22;8168;49.036;7.690;2023-04-07T10:11:44;10.90;99.90
16128;DHT22;8168;49.036;7.690;2023-04-07T10:14:16;10.90;99.90
16128;DHT22;8168;49.036;7.690;2023-04-07T10:16:47;10.90;99.90
16128;DHT22;8168;49.036;7.690;2023-04-07T10:19:19;10.90;99.90
16128;DHT22;8168;49.036;7.690;2023-04-07T10:21:52;11.00;99.90
16128;DHT22;8168;49.036;7.690;2023-04-07T10:24:39;11.00;99.90
16128;DHT22;8168;49.036;7.690;2023-04-07T10:27:18;11.10;99.90
16128;DHT22;8168;49.036;7.690;2023-04-07T10:29:50;11.20;99.90
16128;DHT22;8168;49.036;7.690;2023-04-07T10:32:22;11.30;99.90
16128;DHT22;8168;49.036;7.690;2023-04-07T10:37:24;11.40;99.90
16128;DHT22;8168;49.036;7.690;2023-04-07T10:42:51;11.40;99.90
16128;DHT22;8168;49.036;7.690;2023-04-07T10:48:18;11.40;99.90
16128;DHT22;8168;49.036;7.690;2023-04-07T10:53:35;11.40;99.90
16128;DHT22;8168;49.036;7.690;2023-04-07T10:56:06;11.30;99.90
16128;DHT22;8168;49.036;7.690;2023-04-07T10:58:36;11.30;99.90
16128;DHT22;8168;49.036;7.690;2023-04-07T11:03:52;11.40;99.90
16128;DHT22;8168;49.036;7.690;2023-04-07T11:06:23;11.40;99.90
16128;DHT22;8168;49.036;7.690;2023-04-07T11:08:54;11.50;99.90
16128;DHT22;8168;49.036;7.690;2023-04-07T11:11:36;11.50;99.90
16128;DHT22;8168;49.036;7.690;2023-04-07T11:14:08;11.50;99.90
16128;DHT22;8168;49.036;7.690;2023-04-07T11:16:41;11.60;99.90
16128;DHT22;8168;49.036;7.690;2023-04-07T11:19:12;11.60;99.90
16128;DHT22;8168;49.036;7.690;2023-04-07T11:21:42;11.60;99.90
16128;DHT22;8168;49.036;7.690;2023-04-07T11:24:34;11.70;99.90
16128;DHT22;8168;49.036;7.690;2023-04-07T11:27:13;11.70;99.90
16128;DHT22;8168;49.036;7.690;2023-04-07T11:29:44;11.70;99.90
16128;DHT22;8168;49.036;7.690;2023-04-07T11:32:15;11.70;99.90
16128;DHT22;8168;49.036;7.690;2023-04-07T11:34:46;11.70;99.90
16128;DHT22;8168;49.036;7.690;2023-04-07T11:37:23;11.80;99.90
16128;DHT22;8168;49.036;7.690;2023-04-07T11:39:55;11.80;99.90
16128;DHT22;8168;49.036;7.690;2023-04-07T11:42:37;11.70;99.90
16128;DHT22;8168;49.036;7.690;2023-04-07T11:45:18;11.60;99.90
16128;DHT22;8168;49.036;7.690;2023-04-07T11:47:51;11.60;99.90
16128;DHT22;8168;49.036;7.690;2023-04-07T11:50:39;11.60;99.90
16128;DHT22;8168;49.036;7.690;2023-04-07T11:53:10;11.60;99.90
16128;DHT22;8168;49.036;7.690;2023-04-07T11:55:41;11.60;99.90
16128;DHT22;8168;49.036;7.690;2023-04-07T11:58:11;11.70;99.90
16128;DHT22;8168;49.036;7.690;2023-04-07T12:00:58;11.70;99.90
16128;DHT22;8168;49.036;7.690;2023-04-07T12:03:35;11.80;99.90
16128;DHT22;8168;49.036;7.690;2023-04-07T12:06:06;11.90;99.90
16128;DHT22;8168;49.036;7.690;2023-04-07T12:08:38;12.00;99.90
16128;DHT22;8168;49.036;7.690;2023-04-07T12:11:09;12.20;99.90
16128;DHT22;8168;49.036;7.690;2023-04-07T12:13:40;12.40;99.90
16128;DHT22;8168;49.036;7.690;2023-04-07T12:16:11;12.50;99.90
16128;DHT22;8168;49.036;7.690;2023-04-07T12:18:42;12.40;99.90
16128;DHT22;8168;49.036;7.690;2023-04-07T12:21:13;12.50;99.90
16128;DHT22;8168;49.036;7.690;2023-04-07T12:23:44;12.50;99.90
16128;DHT22;8168;49.036;7.690;2023-04-07T12:26:15;12.50;99.90
16128;DHT22;8168;49.036;7.690;2023-04-07T12:28:46;12.50;99.90
16128;DHT22;8168;49.036;7.690;2023-04-07T12:31:16;12.50;99.90
16128;DHT22;8168;49.036;7.690;2023-04-07T12:33:47;12.50;99.90
16128;DHT22;8168;49.036;7.690;2023-04-07T12:36:18;12.50;99.90
16128;DHT22;8168;49.036;7.690;2023-04-07T12:38:48;12.50;99.90
16128;DHT22;8168;49.036;7.690;2023-04-07T12:41:19;12.40;99.90
16128;DHT22;8168;49.036;7.690;2023-04-07T12:43:50;12.40;99.90
16128;DHT22;8168;49.036;7.690;2023-04-07T12:46:20;12.50;99.90
16128;DHT22;8168;49.036;7.690;2023-04-07T12:48:51;12.40;99.90
16128;DHT22;8168;49.036;7.690;2023-04-07T12:51:22;12.40;99.90
16128;DHT22;8168;49.036;7.690;2023-04-07T12:53:53;12.40;99.90
16128;DHT22;8168;49.036;7.690;2023-04-07T12:56:23;12.40;99.90
16128;DHT22;8168;49.036;7.690;2023-04-07T12:58:54;12.30;99.90
16128;DHT22;8168;49.036;7.690;2023-04-07T13:01:24;12.30;99.90
16128;DHT22;8168;49.036;7.690;2023-04-07T13:03:55;12.20;99.90
16128;DHT22;8168;49.036;7.690;2023-04-07T13:06:26;12.20;99.90
16128;DHT22;8168;49.036;7.690;2023-04-07T13:08:57;12.20;99.90
16128;DHT22;8168;49.036;7.690;2023-04-07T13:11:27;12.20;99.90
16128;DHT22;8168;49.036;7.690;2023-04-07T13:13:58;12.20;99.90
16128;DHT22;8168;49.036;7.690;2023-04-07T13:16:29;12.20;99.90
16128;DHT22;8168;49.036;7.690;2023-04-07T13:18:59;12.20;99.90
16128;DHT22;8168;49.036;7.690;2023-04-07T13:21:31;12.20;99.90
16128;DHT22;8168;49.036;7.690;2023-04-07T13:24:02;12.20;99.90
16128;DHT22;8168;49.036;7.690;2023-04-07T13:26:33;12.20;99.90
16128;DHT22;8168;49.036;7.690;2023-04-07T13:29:03;12.20;99.90
16128;DHT22;8168;49.036;7.690;2023-04-07T13:31:34;12.20;99.90
16128;DHT22;8168;49.036;7.690;2023-04-07T13:34:05;12.10;99.90
16128;DHT22;8168;49.036;7.690;2023-04-07T13:36:35;12.20;99.90
16128;DHT22;8168;49.036;7.690;2023-04-07T13:39:06;12.10;99.90
16128;DHT22;8168;49.036;7.690;2023-04-07T13:41:37;12.10;99.90
16128;DHT22;8168;49.036;7.690;2023-04-07T13:44:07;12.10;99.90
16128;DHT22;8168;49.036;7.690;2023-04-07T13:46:38;12.20;99.90
16128;DHT22;8168;49.036;7.690;2023-04-07T13:49:09;12.30;99.90
16128;DHT22;8168;49.036;7.690;2023-04-07T13:51:40;12.30;99.90
16128;DHT22;8168;49.036;7.690;2023-04-07T13:54:10;12.30;99.90
16128;DHT22;8168;49.036;7.690;2023-04-07T13:56:41;12.30;99.90
16128;DHT22;8168;49.036;7.690;2023-04-07T13:59:12;12.30;99.90
16128;DHT22;8168;49.036;7.690;2023-04-07T14:01:42;12.30;99.90
16128;DHT22;8168;49.036;7.690;2023-04-07T14:04:13;12.20;99.90
16128;DHT22;8168;49.036;7.690;2023-04-07T14:06:43;12.30;99.90
16128;DHT22;8168;49.036;7.690;2023-04-07T14:09:14;12.50;99.90
16128;DHT22;8168;49.036;7.690;2023-04-07T14:11:45;12.70;99.90
16128;DHT22;8168;49.036;7.690;2023-04-07T14:14:16;12.80;99.90
16128;DHT22;8168;49.036;7.690;2023-04-07T14:16:47;13.00;99.90
16128;DHT22;8168;49.036;7.690;2023-04-07T14:19:20;13.20;99.90
16128;DHT22;8168;49.036;7.690;2023-04-07T14:21:54;13.30;99.90
16128;DHT22;8168;49.036;7.690;2023-04-07T14:24:25;13.30;99.90
16128;DHT22;8168;49.036;7.690;2023-04-07T14:26:55;13.20;99.90
16128;DHT22;8168;49.036;7.690;2023-04-07T14:29:26;13.10;99.90
16128;DHT22;8168;49.036;7.690;2023-04-07T14:31:57;13.00;99.90
16128;DHT22;8168;49.036;7.690;2023-04-07T14:34:27;12.90;99.90
16128;DHT22;8168;49.036;7.690;2023-04-07T14:36:58;12.90;99.90
16128;DHT22;8168;49.036;7.690;2023-04-07T14:39:29;13.10;99.90
16128;DHT22;8168;49.036;7.690;2023-04-07T14:42:00;13.20;99.90
16128;DHT22;8168;49.036;7.690;2023-04-07T14:44:30;13.20;99.90
16128;DHT22;8168;49.036;7.690;2023-04-07T14:47:02;13.30;99.90
16128;DHT22;8168;49.036;7.690;2023-04-07T14:49:33;13.30;99.90
16128;DHT22;8168;49.036;7.690;2023-04-07T14:52:04;13.30;99.90
16128;DHT22;8168;49.036;7.690;2023-04-07T14:54:34;13.30;99.90
16128;DHT22;8168;49.036;7.690;2023-04-07T14:57:05;13.40;99.90
16128;DHT22;8168;49.036;7.690;2023-04-07T14:59:36;13.40;99.90
16128;DHT22;8168;49.036;7.690;2023-04-07T15:02:06;13.50;99.90
16128;DHT22;8168;49.036;7.690;2023-04-07T15:04:37;13.60;99.90
16128;DHT22;8168;49.036;7.690;2023-04-07T15:07:08;13.60;99.90
16128;DHT22;8168;49.036;7.690;2023-04-07T15:09:38;13.80;99.90
16128;DHT22;8168;49.036;7.690;2023-04-07T15:12:09;13.90;99.90
16128;DHT22;8168;49.036;7.690;2023-04-07T15:14:39;14.00;99.90
16128;DHT22;8168;49.036;7.690;2023-04-07T15:17:10;14.00;99.90
16128;DHT22;8168;49.036;7.690;2023-04-07T15:19:41;14.00;99.90
16128;DHT22;8168;49.036;7.690;2023-04-07T15:22:11;13.80;99.90
16128;DHT22;8168;49.036;7.690;2023-04-07T15:24:42;14.00;99.90
16128;DHT22;8168;49.036;7.690;2023-04-07T15:27:12;14.10;99.90
16128;DHT22;8168;49.036;7.690;2023-04-07T15:29:43;14.00;99.90
16128;DHT22;8168;49.036;7.690;2023-04-07T15:32:13;13.80;99.90
16128;DHT22;8168;49.036;7.690;2023-04-07T15:34:44;13.70;99.90
16128;DHT22;8168;49.036;7.690;2023-04-07T15:37:16;13.60;99.90
16128;DHT22;8168;49.036;7.690;2023-04-07T15:39:49;13.50;99.90
16128;DHT22;8168;49.036;7.690;2023-04-07T15:42:20;13.40;99.90
16128;DHT22;8168;49.036;7.690;2023-04-07T15:44:50;13.40;99.90
16128;DHT22;8168;49.036;7.690;2023-04-07T15:47:21;13.40;99.90
16128;DHT22;8168;49.036;7.690;2023-04-07T15:49:52;13.40;99.90
16128;DHT22;8168;49.036;7.690;2023-04-07T15:52:23;13.50;99.90
16128;DHT22;8168;49.036;7.690;2023-04-07T15:54:54;13.50;99.90
16128;DHT22;8168;49.036;7.690;2023-04-07T15:57:25;13.40;99.90
16128;DHT22;8168;49.036;7.690;2023-04-07T15:59:55;13.30;99.90
16128;DHT22;8168;49.036;7.690;2023-04-07T16:02:26;13.30;99.90
16128;DHT22;8168;49.036;7.690;2023-04-07T16:04:56;13.10;99.90
16128;DHT22;8168;49.036;7.690;2023-04-07T16:07:27;13.10;99.90
16128;DHT22;8168;49.036;7.690;2023-04-07T16:09:58;13.00;99.90
16128;DHT22;8168;49.036;7.690;2023-04-07T16:12:28;12.90;99.90
16128;DHT22;8168;49.036;7.690;2023-04-07T16:14:59;12.80;99.90
16128;DHT22;8168;49.036;7.690;2023-04-07T16:17:30;12.70;99.90
16128;DHT22;8168;49.036;7.690;2023-04-07T16:20:00;12.50;99.90
16128;DHT22;8168;49.036;7.690;2023-04-07T16:22:31;12.40;99.90
16128;DHT22;8168;49.036;7.690;2023-04-07T16:25:01;12.30;99.90
16128;DHT22;8168;49.036;7.690;2023-04-07T16:27:32;12.20;99.90
16128;DHT22;8168;49.036;7.690;2023-04-07T16:30:04;12.10;99.90
16128;DHT22;8168;49.036;7.690;2023-04-07T16:32:35;12.20;99.90
16128;DHT22;8168;49.036;7.690;2023-04-07T16:35:05;12.20;99.90
16128;DHT22;8168;49.036;7.690;2023-04-07T16:37:37;12.20;99.90
16128;DHT22;8168;49.036;7.690;2023-04-07T16:40:08;12.00;99.90
16128;DHT22;8168;49.036;7.690;2023-04-07T16:42:39;12.00;99.90
16128;DHT22;8168;49.036;7.690;2023-04-07T16:45:10;11.90;99.90